sensor_id;sensor_type;location;lat;lon;timestamp;temperature;humidity
11144;DHT22;5626;44.730;10.276;2022-07-01T00:01:55;26.70;55.50
11144;DHT22;5626;44.730;10.276;2022-07-01T00:04:26;26.80;53.50
11144;DHT22;5626;44.730;10.276;2022-07-01T00:07:16;26.80;53.80
11144;DHT22;5626;44.730;10.276;2022-07-01T00:09:45;26.80;54.10
11144;DHT22;5626;44.730;10.276;2022-07-01T00:12:15;26.80;54.90
11144;DHT22;5626;44.730;10.276;2022-07-01T00:14:44;26.80;54.10
11144;DHT22;5626;44.730;10.276;2022-07-01T00:17:14;26.80;54.20
11144;DHT22;5626;44.730;10.276;2022-07-01T00:19:45;26.80;54.50
11144;DHT22;5626;44.730;10.276;2022-07-01T00:22:14;26.80;51.20
11144;DHT22;5626;44.730;10.276;2022-07-01T00:24:44;26.80;54.70
11144;DHT22;5626;44.730;10.276;2022-07-01T00:27:16;26.80;55.30
11144;DHT22;5626;44.730;10.276;2022-07-01T00:29:46;26.90;55.00
11144;DHT22;5626;44.730;10.276;2022-07-01T00:32:16;26.90;54.10
11144;DHT22;5626;44.730;10.276;2022-07-01T00:34:47;26.90;54.40
11144;DHT22;5626;44.730;10.276;2022-07-01T00:37:16;26.80;52.80
11144;DHT22;5626;44.730;10.276;2022-07-01T00:39:46;26.70;53.70
11144;DHT22;5626;44.730;10.276;2022-07-01T00:42:15;26.70;54.50
11144;DHT22;5626;44.730;10.276;2022-07-01T00:44:45;26.60;54.30
11144;DHT22;5626;44.730;10.276;2022-07-01T00:47:15;26.60;54.80
11144;DHT22;5626;44.730;10.276;2022-07-01T00:49:46;26.70;55.30
11144;DHT22;5626;44.730;10.276;2022-07-01T00:52:15;26.70;55.00
11144;DHT22;5626;44.730;10.276;2022-07-01T00:54:45;26.70;54.10
11144;DHT22;5626;44.730;10.276;2022-07-01T00:57:15;26.80;55.00
11144;DHT22;5626;44.730;10.276;2022-07-01T00:59:44;26.80;55.40
11144;DHT22;5626;44.730;10.276;2022-07-01T01:02:14;26.90;54.90
11144;DHT22;5626;44.730;10.276;2022-07-01T01:04:44;27.00;54.90
11144;DHT22;5626;44.730;10.276;2022-07-01T01:07:15;27.00;54.90
11144;DHT22;5626;44.730;10.276;2022-07-01T01:09:45;27.00;54.80
11144;DHT22;5626;44.730;10.276;2022-07-01T01:12:15;27.00;54.70
11144;DHT22;5626;44.730;10.276;2022-07-01T01:14:46;27.00;54.60
11144;DHT22;5626;44.730;10.276;2022-07-01T01:17:17;27.00;54.60
11144;DHT22;5626;44.730;10.276;2022-07-01T01:19:47;27.00;54.80
11144;DHT22;5626;44.730;10.276;2022-07-01T01:22:18;27.00;54.60
11144;DHT22;5626;44.730;10.276;2022-07-01T01:24:49;27.00;54.60
11144;DHT22;5626;44.730;10.276;2022-07-01T01:27:19;27.10;54.70
11144;DHT22;5626;44.730;10.276;2022-07-01T01:29:48;27.10;54.60
11144;DHT22;5626;44.730;10.276;2022-07-01T01:32:18;27.00;53.60
11144;DHT22;5626;44.730;10.276;2022-07-01T01:34:48;26.90;54.00
11144;DHT22;5626;44.730;10.276;2022-07-01T01:37:19;26.70;51.90
11144;DHT22;5626;44.730;10.276;2022-07-01T01:39:48;26.60;53.50
11144;DHT22;5626;44.730;10.276;2022-07-01T01:42:18;26.40;52.70
11144;DHT22;5626;44.730;10.276;2022-07-01T01:44:47;26.30;53.80
11144;DHT22;5626;44.730;10.276;2022-07-01T01:47:17;26.20;56.80
11144;DHT22;5626;44.730;10.276;2022-07-01T01:49:47;26.30;56.70
11144;DHT22;5626;44.730;10.276;2022-07-01T01:52:16;26.40;56.20
11144;DHT22;5626;44.730;10.276;2022-07-01T01:54:47;26.40;56.60
11144;DHT22;5626;44.730;10.276;2022-07-01T01:57:17;26.50;56.40
11144;DHT22;5626;44.730;10.276;2022-07-01T01:59:46;26.60;56.40
11144;DHT22;5626;44.730;10.276;2022-07-01T02:02:16;26.60;56.20
11144;DHT22;5626;44.730;10.276;2022-07-01T02:04:45;26.70;56.10
11144;DHT22;5626;44.730;10.276;2022-07-01T02:07:15;26.70;56.10
11144;DHT22;5626;44.730;10.276;2022-07-01T02:09:44;26.70;55.90
11144;DHT22;5626;44.730;10.276;2022-07-01T02:12:16;26.70;55.80
11144;DHT22;5626;44.730;10.276;2022-07-01T02:14:45;26.70;55.80
11144;DHT22;5626;44.730;10.276;2022-07-01T02:17:15;26.70;55.90
11144;DHT22;5626;44.730;10.276;2022-07-01T02:19:44;26.70;55.80
11144;DHT22;5626;44.730;10.276;2022-07-01T02:22:13;26.70;55.90
11144;DHT22;5626;44.730;10.276;2022-07-01T02:24:43;26.70;56.00
11144;DHT22;5626;44.730;10.276;2022-07-01T02:27:15;26.70;56.00
11144;DHT22;5626;44.730;10.276;2022-07-01T02:29:44;26.70;56.00
11144;DHT22;5626;44.730;10.276;2022-07-01T02:32:14;26.70;55.80
11144;DHT22;5626;44.730;10.276;2022-07-01T02:34:44;26.70;56.10
11144;DHT22;5626;44.730;10.276;2022-07-01T02:37:13;26.60;56.30
11144;DHT22;5626;44.730;10.276;2022-07-01T02:39:43;26.60;56.40
11144;DHT22;5626;44.730;10.276;2022-07-01T02:42:12;26.60;56.50
11144;DHT22;5626;44.730;10.276;2022-07-01T02:44:56;26.60;56.00
11144;DHT22;5626;44.730;10.276;2022-07-01T02:47:31;26.50;56.30
11144;DHT22;5626;44.730;10.276;2022-07-01T02:50:00;26.40;56.80
11144;DHT22;5626;44.730;10.276;2022-07-01T02:52:30;26.30;56.50
11144;DHT22;5626;44.730;10.276;2022-07-01T02:55:03;26.30;57.10
11144;DHT22;5626;44.730;10.276;2022-07-01T02:57:33;26.30;57.20
11144;DHT22;5626;44.730;10.276;2022-07-01T03:00:06;26.40;57.10
11144;DHT22;5626;44.730;10.276;2022-07-01T03:02:36;26.40;57.10
11144;DHT22;5626;44.730;10.276;2022-07-01T03:05:07;26.40;56.80
11144;DHT22;5626;44.730;10.276;2022-07-01T03:07:37;26.40;55.40
11144;DHT22;5626;44.730;10.276;2022-07-01T03:10:08;26.30;54.90
11144;DHT22;5626;44.730;10.276;2022-07-01T03:12:38;26.00;55.80
11144;DHT22;5626;44.730;10.276;2022-07-01T03:15:11;25.90;56.90
11144;DHT22;5626;44.730;10.276;2022-07-01T03:17:41;25.70;55.40
11144;DHT22;5626;44.730;10.276;2022-07-01T03:20:13;25.60;55.50
11144;DHT22;5626;44.730;10.276;2022-07-01T03:22:44;25.50;55.70
11144;DHT22;5626;44.730;10.276;2022-07-01T03:25:14;25.50;57.80
11144;DHT22;5626;44.730;10.276;2022-07-01T03:27:43;25.50;57.90
11144;DHT22;5626;44.730;10.276;2022-07-01T03:30:17;25.70;59.00
11144;DHT22;5626;44.730;10.276;2022-07-01T03:32:47;25.70;57.40
11144;DHT22;5626;44.730;10.276;2022-07-01T03:35:16;25.70;56.70
11144;DHT22;5626;44.730;10.276;2022-07-01T03:38:04;25.60;57.20
11144;DHT22;5626;44.730;10.276;2022-07-01T03:40:34;25.60;56.40
11144;DHT22;5626;44.730;10.276;2022-07-01T03:43:04;25.50;58.10
11144;DHT22;5626;44.730;10.276;2022-07-01T03:45:35;25.60;57.90
11144;DHT22;5626;44.730;10.276;2022-07-01T03:48:05;25.70;58.00
11144;DHT22;5626;44.730;10.276;2022-07-01T03:50:35;25.80;57.20
11144;DHT22;5626;44.730;10.276;2022-07-01T03:53:05;25.80;57.00
11144;DHT22;5626;44.730;10.276;2022-07-01T03:55:51;25.90;56.90
11144;DHT22;5626;44.730;10.276;2022-07-01T03:58:21;25.90;56.60
11144;DHT22;5626;44.730;10.276;2022-07-01T04:00:52;25.90;57.50
11144;DHT22;5626;44.730;10.276;2022-07-01T04:03:22;26.00;57.20
11144;DHT22;5626;44.730;10.276;2022-07-01T04:05:52;26.10;57.40
11144;DHT22;5626;44.730;10.276;2022-07-01T04:08:21;26.20;57.10
11144;DHT22;5626;44.730;10.276;2022-07-01T04:10:51;26.40;56.70
11144;DHT22;5626;44.730;10.276;2022-07-01T04:13:23;26.40;56.60
11144;DHT22;5626;44.730;10.276;2022-07-01T04:15:58;26.40;56.30
11144;DHT22;5626;44.730;10.276;2022-07-01T04:18:28;26.40;56.20
11144;DHT22;5626;44.730;10.276;2022-07-01T04:20:58;26.40;55.90
11144;DHT22;5626;44.730;10.276;2022-07-01T04:23:45;26.50;56.40
11144;DHT22;5626;44.730;10.276;2022-07-01T04:26:15;26.60;56.10
11144;DHT22;5626;44.730;10.276;2022-07-01T04:29:03;26.60;56.20
11144;DHT22;5626;44.730;10.276;2022-07-01T04:31:35;26.70;55.80
11144;DHT22;5626;44.730;10.276;2022-07-01T04:34:06;26.70;55.90
11144;DHT22;5626;44.730;10.276;2022-07-01T04:36:36;26.70;54.10
11144;DHT22;5626;44.730;10.276;2022-07-01T04:39:06;26.70;55.10
11144;DHT22;5626;44.730;10.276;2022-07-01T04:41:36;26.70;56.00
11144;DHT22;5626;44.730;10.276;2022-07-01T04:44:23;26.80;55.30
11144;DHT22;5626;44.730;10.276;2022-07-01T04:46:54;26.90;55.40
11144;DHT22;5626;44.730;10.276;2022-07-01T04:49:24;27.00;54.70
11144;DHT22;5626;44.730;10.276;2022-07-01T04:51:53;27.10;53.50
11144;DHT22;5626;44.730;10.276;2022-07-01T04:54:23;26.90;53.40
11144;DHT22;5626;44.730;10.276;2022-07-01T04:56:54;26.70;54.70
11144;DHT22;5626;44.730;10.276;2022-07-01T04:59:23;26.50;55.70
11144;DHT22;5626;44.730;10.276;2022-07-01T05:01:54;26.50;55.70
11144;DHT22;5626;44.730;10.276;2022-07-01T05:04:24;26.60;55.60
11144;DHT22;5626;44.730;10.276;2022-07-01T05:06:56;26.80;54.80
11144;DHT22;5626;44.730;10.276;2022-07-01T05:09:25;27.00;55.50
11144;DHT22;5626;44.730;10.276;2022-07-01T05:11:55;27.30;54.90
11144;DHT22;5626;44.730;10.276;2022-07-01T05:14:24;27.60;55.00
11144;DHT22;5626;44.730;10.276;2022-07-01T05:16:55;27.80;52.90
11144;DHT22;5626;44.730;10.276;2022-07-01T05:19:25;28.00;53.80
11144;DHT22;5626;44.730;10.276;2022-07-01T05:22:12;28.00;53.60
11144;DHT22;5626;44.730;10.276;2022-07-01T05:24:42;28.00;53.70
11144;DHT22;5626;44.730;10.276;2022-07-01T05:27:11;27.90;54.00
11144;DHT22;5626;44.730;10.276;2022-07-01T05:29:41;28.00;53.90
11144;DHT22;5626;44.730;10.276;2022-07-01T05:32:12;28.00;54.30
11144;DHT22;5626;44.730;10.276;2022-07-01T05:34:42;28.10;53.90
11144;DHT22;5626;44.730;10.276;2022-07-01T05:37:12;28.10;53.70
11144;DHT22;5626;44.730;10.276;2022-07-01T05:39:45;28.10;53.20
11144;DHT22;5626;44.730;10.276;2022-07-01T05:42:17;28.20;53.50
11144;DHT22;5626;44.730;10.276;2022-07-01T05:44:47;28.40;52.00
11144;DHT22;5626;44.730;10.276;2022-07-01T05:47:18;28.60;52.80
11144;DHT22;5626;44.730;10.276;2022-07-01T05:49:48;28.80;53.00
11144;DHT22;5626;44.730;10.276;2022-07-01T05:52:17;29.00;52.70
11144;DHT22;5626;44.730;10.276;2022-07-01T05:54:47;29.30;52.30
11144;DHT22;5626;44.730;10.276;2022-07-01T05:57:16;29.50;52.00
11144;DHT22;5626;44.730;10.276;2022-07-01T05:59:46;29.70;51.70
11144;DHT22;5626;44.730;10.276;2022-07-01T06:02:15;29.90;50.40
11144;DHT22;5626;44.730;10.276;2022-07-01T06:04:46;30.10;48.80
11144;DHT22;5626;44.730;10.276;2022-07-01T06:07:16;30.00;47.90
11144;DHT22;5626;44.730;10.276;2022-07-01T06:09:45;30.10;48.40
11144;DHT22;5626;44.730;10.276;2022-07-01T06:12:15;30.20;46.50
11144;DHT22;5626;44.730;10.276;2022-07-01T06:14:44;30.20;45.80
11144;DHT22;5626;44.730;10.276;2022-07-01T06:17:14;30.10;45.60
11144;DHT22;5626;44.730;10.276;2022-07-01T06:19:45;30.20;47.40
11144;DHT22;5626;44.730;10.276;2022-07-01T06:22:15;30.20;44.50
11144;DHT22;5626;44.730;10.276;2022-07-01T06:24:46;30.20;49.40
11144;DHT22;5626;44.730;10.276;2022-07-01T06:27:15;30.20;48.80
11144;DHT22;5626;44.730;10.276;2022-07-01T06:29:45;30.30;47.30
11144;DHT22;5626;44.730;10.276;2022-07-01T06:32:15;30.30;46.30
11144;DHT22;5626;44.730;10.276;2022-07-01T06:34:46;30.50;47.70
11144;DHT22;5626;44.730;10.276;2022-07-01T06:37:16;30.50;46.00
11144;DHT22;5626;44.730;10.276;2022-07-01T06:39:48;30.50;45.30
11144;DHT22;5626;44.730;10.276;2022-07-01T06:42:18;30.40;46.70
11144;DHT22;5626;44.730;10.276;2022-07-01T06:44:49;30.40;45.50
11144;DHT22;5626;44.730;10.276;2022-07-01T06:47:19;30.50;45.00
11144;DHT22;5626;44.730;10.276;2022-07-01T06:49:50;30.50;46.30
11144;DHT22;5626;44.730;10.276;2022-07-01T06:52:21;30.60;45.90
11144;DHT22;5626;44.730;10.276;2022-07-01T06:54:51;30.60;47.70
11144;DHT22;5626;44.730;10.276;2022-07-01T06:57:20;30.70;46.10
11144;DHT22;5626;44.730;10.276;2022-07-01T06:59:50;30.80;43.10
11144;DHT22;5626;44.730;10.276;2022-07-01T07:02:19;30.90;44.70
11144;DHT22;5626;44.730;10.276;2022-07-01T07:04:53;30.80;44.30
11144;DHT22;5626;44.730;10.276;2022-07-01T07:07:27;30.70;44.30
11144;DHT22;5626;44.730;10.276;2022-07-01T07:09:57;30.60;46.10
11144;DHT22;5626;44.730;10.276;2022-07-01T07:12:26;30.60;46.10
11144;DHT22;5626;44.730;10.276;2022-07-01T07:14:56;30.60;47.90
11144;DHT22;5626;44.730;10.276;2022-07-01T07:17:25;30.70;47.30
11144;DHT22;5626;44.730;10.276;2022-07-01T07:19:57;30.90;45.60
11144;DHT22;5626;44.730;10.276;2022-07-01T07:22:26;31.00;44.40
11144;DHT22;5626;44.730;10.276;2022-07-01T07:24:56;31.10;46.50
11144;DHT22;5626;44.730;10.276;2022-07-01T07:27:26;31.30;46.40
11144;DHT22;5626;44.730;10.276;2022-07-01T07:29:58;31.30;46.20
11144;DHT22;5626;44.730;10.276;2022-07-01T07:32:27;31.40;46.90
11144;DHT22;5626;44.730;10.276;2022-07-01T07:34:58;31.50;46.90
11144;DHT22;5626;44.730;10.276;2022-07-01T07:37:28;31.70;46.60
11144;DHT22;5626;44.730;10.276;2022-07-01T07:40:00;31.80;47.50
11144;DHT22;5626;44.730;10.276;2022-07-01T07:42:31;31.90;47.40
11144;DHT22;5626;44.730;10.276;2022-07-01T07:45:01;32.00;46.90
11144;DHT22;5626;44.730;10.276;2022-07-01T07:47:31;32.00;44.30
11144;DHT22;5626;44.730;10.276;2022-07-01T07:50:03;32.10;44.00
11144;DHT22;5626;44.730;10.276;2022-07-01T07:52:33;32.10;45.10
11144;DHT22;5626;44.730;10.276;2022-07-01T07:55:03;32.10;45.00
11144;DHT22;5626;44.730;10.276;2022-07-01T07:57:34;32.00;45.30
11144;DHT22;5626;44.730;10.276;2022-07-01T08:00:05;31.80;45.50
11144;DHT22;5626;44.730;10.276;2022-07-01T08:02:41;31.60;46.70
11144;DHT22;5626;44.730;10.276;2022-07-01T08:05:13;31.40;47.40
11144;DHT22;5626;44.730;10.276;2022-07-01T08:07:42;31.20;47.10
11144;DHT22;5626;44.730;10.276;2022-07-01T08:10:13;31.00;49.10
11144;DHT22;5626;44.730;10.276;2022-07-01T08:12:43;30.90;49.20
11144;DHT22;5626;44.730;10.276;2022-07-01T08:15:12;30.80;48.90
11144;DHT22;5626;44.730;10.276;2022-07-01T08:17:42;30.90;49.60
11144;DHT22;5626;44.730;10.276;2022-07-01T08:20:13;30.80;49.50
11144;DHT22;5626;44.730;10.276;2022-07-01T08:22:46;30.80;50.60
11144;DHT22;5626;44.730;10.276;2022-07-01T08:25:16;30.70;50.20
11144;DHT22;5626;44.730;10.276;2022-07-01T08:27:46;30.70;51.20
11144;DHT22;5626;44.730;10.276;2022-07-01T08:30:15;30.60;51.60
11144;DHT22;5626;44.730;10.276;2022-07-01T08:32:45;30.50;52.10
11144;DHT22;5626;44.730;10.276;2022-07-01T08:35:16;30.30;53.70
11144;DHT22;5626;44.730;10.276;2022-07-01T08:37:46;30.00;52.00
11144;DHT22;5626;44.730;10.276;2022-07-01T08:40:16;29.80;53.20
11144;DHT22;5626;44.730;10.276;2022-07-01T08:42:45;29.80;53.20
11144;DHT22;5626;44.730;10.276;2022-07-01T08:45:15;29.90;53.50
11144;DHT22;5626;44.730;10.276;2022-07-01T08:47:51;30.20;53.00
11144;DHT22;5626;44.730;10.276;2022-07-01T08:50:22;30.50;52.40
11144;DHT22;5626;44.730;10.276;2022-07-01T08:52:52;30.70;52.20
11144;DHT22;5626;44.730;10.276;2022-07-01T08:55:22;30.90;51.60
11144;DHT22;5626;44.730;10.276;2022-07-01T08:57:52;31.00;50.70
11144;DHT22;5626;44.730;10.276;2022-07-01T09:00:22;31.10;50.80
11144;DHT22;5626;44.730;10.276;2022-07-01T09:02:59;31.10;50.60
11144;DHT22;5626;44.730;10.276;2022-07-01T09:05:31;30.90;49.30
11144;DHT22;5626;44.730;10.276;2022-07-01T09:08:02;30.90;48.30
11144;DHT22;5626;44.730;10.276;2022-07-01T09:10:33;31.00;48.50
11144;DHT22;5626;44.730;10.276;2022-07-01T09:13:07;31.10;48.40
11144;DHT22;5626;44.730;10.276;2022-07-01T09:15:38;31.10;47.70
11144;DHT22;5626;44.730;10.276;2022-07-01T09:18:12;31.10;46.90
11144;DHT22;5626;44.730;10.276;2022-07-01T09:20:44;31.20;47.50
11144;DHT22;5626;44.730;10.276;2022-07-01T09:23:17;31.30;47.30
11144;DHT22;5626;44.730;10.276;2022-07-01T09:25:49;31.30;46.30
11144;DHT22;5626;44.730;10.276;2022-07-01T09:28:23;31.40;47.20
11144;DHT22;5626;44.730;10.276;2022-07-01T09:30:57;31.60;47.10
11144;DHT22;5626;44.730;10.276;2022-07-01T09:33:28;31.60;47.30
11144;DHT22;5626;44.730;10.276;2022-07-01T09:35:59;31.70;45.90
11144;DHT22;5626;44.730;10.276;2022-07-01T09:38:29;31.80;46.70
11144;DHT22;5626;44.730;10.276;2022-07-01T09:41:01;31.80;46.20
11144;DHT22;5626;44.730;10.276;2022-07-01T09:43:32;31.90;46.90
11144;DHT22;5626;44.730;10.276;2022-07-01T09:46:05;31.90;45.90
11144;DHT22;5626;44.730;10.276;2022-07-01T09:48:44;32.00;46.20
11144;DHT22;5626;44.730;10.276;2022-07-01T09:51:15;32.00;45.80
11144;DHT22;5626;44.730;10.276;2022-07-01T09:53:45;32.10;46.40
11144;DHT22;5626;44.730;10.276;2022-07-01T09:56:14;32.10;46.80
11144;DHT22;5626;44.730;10.276;2022-07-01T09:58:44;32.10;46.70
11144;DHT22;5626;44.730;10.276;2022-07-01T10:01:14;32.10;46.90
11144;DHT22;5626;44.730;10.276;2022-07-01T10:03:44;32.10;46.40
11144;DHT22;5626;44.730;10.276;2022-07-01T10:09:29;32.20;46.10
11144;DHT22;5626;44.730;10.276;2022-07-01T10:12:18;32.20;45.50
11144;DHT22;5626;44.730;10.276;2022-07-01T10:14:56;32.20;46.10
11144;DHT22;5626;44.730;10.276;2022-07-01T10:17:29;32.30;47.40
11144;DHT22;5626;44.730;10.276;2022-07-01T10:20:08;32.30;46.50
11144;DHT22;5626;44.730;10.276;2022-07-01T10:22:40;32.40;46.60
11144;DHT22;5626;44.730;10.276;2022-07-01T10:25:29;32.50;46.30
11144;DHT22;5626;44.730;10.276;2022-07-01T10:28:29;32.60;47.10
11144;DHT22;5626;44.730;10.276;2022-07-01T10:31:01;32.60;46.70
11144;DHT22;5626;44.730;10.276;2022-07-01T10:33:34;32.70;46.10
11144;DHT22;5626;44.730;10.276;2022-07-01T10:36:06;32.70;46.00
11144;DHT22;5626;44.730;10.276;2022-07-01T10:39:08;32.70;46.70
11144;DHT22;5626;44.730;10.276;2022-07-01T10:41:40;32.80;46.00
11144;DHT22;5626;44.730;10.276;2022-07-01T10:44:12;32.80;45.40
11144;DHT22;5626;44.730;10.276;2022-07-01T10:46:45;32.80;44.50
11144;DHT22;5626;44.730;10.276;2022-07-01T10:49:17;32.90;44.70
11144;DHT22;5626;44.730;10.276;2022-07-01T10:51:48;33.00;44.60
11144;DHT22;5626;44.730;10.276;2022-07-01T10:54:49;33.00;43.50
11144;DHT22;5626;44.730;10.276;2022-07-01T10:57:39;33.10;44.30
11144;DHT22;5626;44.730;10.276;2022-07-01T11:00:28;33.00;43.70
11144;DHT22;5626;44.730;10.276;2022-07-01T11:03:17;33.00;44.00
11144;DHT22;5626;44.730;10.276;2022-07-01T11:05:51;33.20;44.40
11144;DHT22;5626;44.730;10.276;2022-07-01T11:08:21;33.30;45.40
11144;DHT22;5626;44.730;10.276;2022-07-01T11:11:00;33.40;45.90
11144;DHT22;5626;44.730;10.276;2022-07-01T11:13:35;33.60;45.20
11144;DHT22;5626;44.730;10.276;2022-07-01T11:16:05;33.60;45.10
11144;DHT22;5626;44.730;10.276;2022-07-01T11:18:35;33.60;43.90
11144;DHT22;5626;44.730;10.276;2022-07-01T11:21:08;33.50;43.60
11144;DHT22;5626;44.730;10.276;2022-07-01T11:23:39;33.60;44.50
11144;DHT22;5626;44.730;10.276;2022-07-01T11:26:25;33.70;44.60
11144;DHT22;5626;44.730;10.276;2022-07-01T11:28:55;33.80;44.20
11144;DHT22;5626;44.730;10.276;2022-07-01T11:31:29;33.80;44.40
11144;DHT22;5626;44.730;10.276;2022-07-01T11:33:59;33.80;44.20
11144;DHT22;5626;44.730;10.276;2022-07-01T11:36:29;33.90;44.30
11144;DHT22;5626;44.730;10.276;2022-07-01T11:39:17;34.00;44.00
11144;DHT22;5626;44.730;10.276;2022-07-01T11:41:56;34.00;43.50
11144;DHT22;5626;44.730;10.276;2022-07-01T11:44:33;34.20;43.90
11144;DHT22;5626;44.730;10.276;2022-07-01T11:47:06;34.20;42.20
11144;DHT22;5626;44.730;10.276;2022-07-01T11:49:43;34.20;43.50
11144;DHT22;5626;44.730;10.276;2022-07-01T11:52:15;34.30;43.40
11144;DHT22;5626;44.730;10.276;2022-07-01T11:54:47;34.40;44.00
11144;DHT22;5626;44.730;10.276;2022-07-01T11:57:19;34.50;43.50
11144;DHT22;5626;44.730;10.276;2022-07-01T11:59:51;34.70;43.30
11144;DHT22;5626;44.730;10.276;2022-07-01T12:02:22;34.80;42.30
11144;DHT22;5626;44.730;10.276;2022-07-01T12:04:52;34.80;42.30
11144;DHT22;5626;44.730;10.276;2022-07-01T12:07:22;34.90;42.30
11144;DHT22;5626;44.730;10.276;2022-07-01T12:09:52;34.80;43.30
11144;DHT22;5626;44.730;10.276;2022-07-01T12:12:24;34.50;42.50
11144;DHT22;5626;44.730;10.276;2022-07-01T12:14:57;34.50;42.80
11144;DHT22;5626;44.730;10.276;2022-07-01T12:17:27;34.50;43.20
11144;DHT22;5626;44.730;10.276;2022-07-01T12:19:59;34.60;43.40
11144;DHT22;5626;44.730;10.276;2022-07-01T12:22:29;34.70;43.00
11144;DHT22;5626;44.730;10.276;2022-07-01T12:25:05;34.80;43.40
11144;DHT22;5626;44.730;10.276;2022-07-01T12:27:38;34.80;42.10
11144;DHT22;5626;44.730;10.276;2022-07-01T12:30:10;34.80;42.80
11144;DHT22;5626;44.730;10.276;2022-07-01T12:32:41;34.90;43.30
11144;DHT22;5626;44.730;10.276;2022-07-01T12:35:12;35.10;43.50
11144;DHT22;5626;44.730;10.276;2022-07-01T12:37:56;35.40;42.80
11144;DHT22;5626;44.730;10.276;2022-07-01T12:40:26;35.70;42.80
11144;DHT22;5626;44.730;10.276;2022-07-01T12:42:58;35.90;41.20
11144;DHT22;5626;44.730;10.276;2022-07-01T12:45:39;35.90;42.80
11144;DHT22;5626;44.730;10.276;2022-07-01T12:48:09;35.90;41.20
11144;DHT22;5626;44.730;10.276;2022-07-01T12:50:39;36.10;40.30
11144;DHT22;5626;44.730;10.276;2022-07-01T12:53:10;36.10;41.50
11144;DHT22;5626;44.730;10.276;2022-07-01T12:55:41;36.00;40.30
11144;DHT22;5626;44.730;10.276;2022-07-01T12:58:14;36.00;40.30
11144;DHT22;5626;44.730;10.276;2022-07-01T13:00:46;36.00;39.70
11144;DHT22;5626;44.730;10.276;2022-07-01T13:03:19;36.10;39.60
11144;DHT22;5626;44.730;10.276;2022-07-01T13:05:49;36.10;40.40
11144;DHT22;5626;44.730;10.276;2022-07-01T13:08:19;35.90;41.20
11144;DHT22;5626;44.730;10.276;2022-07-01T13:10:49;35.70;41.30
11144;DHT22;5626;44.730;10.276;2022-07-01T13:13:20;35.30;40.60
11144;DHT22;5626;44.730;10.276;2022-07-01T13:15:50;35.20;41.80
11144;DHT22;5626;44.730;10.276;2022-07-01T13:18:20;35.20;42.40
11144;DHT22;5626;44.730;10.276;2022-07-01T13:20:49;35.00;42.10
11144;DHT22;5626;44.730;10.276;2022-07-01T13:23:19;34.90;42.10
11144;DHT22;5626;44.730;10.276;2022-07-01T13:25:49;35.10;42.30
11144;DHT22;5626;44.730;10.276;2022-07-01T13:28:20;35.10;42.30
11144;DHT22;5626;44.730;10.276;2022-07-01T13:30:50;34.90;40.90
11144;DHT22;5626;44.730;10.276;2022-07-01T13:33:19;34.90;42.30
11144;DHT22;5626;44.730;10.276;2022-07-01T13:35:49;34.90;41.40
11144;DHT22;5626;44.730;10.276;2022-07-01T13:38:19;34.90;41.40
11144;DHT22;5626;44.730;10.276;2022-07-01T13:40:49;34.90;41.50
11144;DHT22;5626;44.730;10.276;2022-07-01T13:43:20;34.90;42.60
11144;DHT22;5626;44.730;10.276;2022-07-01T13:45:49;35.10;42.20
11144;DHT22;5626;44.730;10.276;2022-07-01T13:48:19;35.20;41.50
11144;DHT22;5626;44.730;10.276;2022-07-01T13:50:48;35.40;41.90
11144;DHT22;5626;44.730;10.276;2022-07-01T13:53:18;35.50;41.50
11144;DHT22;5626;44.730;10.276;2022-07-01T13:55:47;35.40;39.90
11144;DHT22;5626;44.730;10.276;2022-07-01T13:58:17;35.40;39.90
11144;DHT22;5626;44.730;10.276;2022-07-01T14:00:49;35.50;39.50
11144;DHT22;5626;44.730;10.276;2022-07-01T14:03:19;35.50;38.80
11144;DHT22;5626;44.730;10.276;2022-07-01T14:05:48;35.70;41.10
11144;DHT22;5626;44.730;10.276;2022-07-01T14:08:19;35.70;40.10
11144;DHT22;5626;44.730;10.276;2022-07-01T14:10:49;35.60;39.60
11144;DHT22;5626;44.730;10.276;2022-07-01T14:13:18;35.20;40.60
11144;DHT22;5626;44.730;10.276;2022-07-01T14:15:51;34.90;40.30
11144;DHT22;5626;44.730;10.276;2022-07-01T14:18:22;35.00;41.10
11144;DHT22;5626;44.730;10.276;2022-07-01T14:20:51;35.10;40.70
11144;DHT22;5626;44.730;10.276;2022-07-01T14:23:21;35.10;41.20
11144;DHT22;5626;44.730;10.276;2022-07-01T14:25:51;35.10;40.20
11144;DHT22;5626;44.730;10.276;2022-07-01T14:28:20;35.00;41.20
11144;DHT22;5626;44.730;10.276;2022-07-01T14:30:52;34.60;41.20
11144;DHT22;5626;44.730;10.276;2022-07-01T14:33:23;34.70;40.90
11144;DHT22;5626;44.730;10.276;2022-07-01T14:35:53;34.80;41.10
11144;DHT22;5626;44.730;10.276;2022-07-01T14:38:23;34.90;41.60
11144;DHT22;5626;44.730;10.276;2022-07-01T14:40:52;34.70;40.80
11144;DHT22;5626;44.730;10.276;2022-07-01T14:43:22;34.70;41.40
11144;DHT22;5626;44.730;10.276;2022-07-01T14:45:53;34.70;41.90
11144;DHT22;5626;44.730;10.276;2022-07-01T14:48:23;34.70;41.40
11144;DHT22;5626;44.730;10.276;2022-07-01T14:50:52;34.50;40.10
11144;DHT22;5626;44.730;10.276;2022-07-01T14:53:22;34.50;40.40
11144;DHT22;5626;44.730;10.276;2022-07-01T14:55:52;34.50;41.10
11144;DHT22;5626;44.730;10.276;2022-07-01T14:58:21;34.50;41.10
11144;DHT22;5626;44.730;10.276;2022-07-01T15:00:52;34.60;39.60
11144;DHT22;5626;44.730;10.276;2022-07-01T15:03:22;34.40;41.70
11144;DHT22;5626;44.730;10.276;2022-07-01T15:05:52;34.40;41.20
11144;DHT22;5626;44.730;10.276;2022-07-01T15:08:22;34.50;42.70
11144;DHT22;5626;44.730;10.276;2022-07-01T15:10:52;34.60;43.10
11144;DHT22;5626;44.730;10.276;2022-07-01T15:13:30;34.60;42.80
11144;DHT22;5626;44.730;10.276;2022-07-01T15:16:01;34.60;42.20
11144;DHT22;5626;44.730;10.276;2022-07-01T15:18:31;34.60;41.70
11144;DHT22;5626;44.730;10.276;2022-07-01T15:21:01;34.30;41.20
11144;DHT22;5626;44.730;10.276;2022-07-01T15:23:31;34.10;41.60
11144;DHT22;5626;44.730;10.276;2022-07-01T15:26:00;34.00;41.00
11144;DHT22;5626;44.730;10.276;2022-07-01T15:28:30;34.00;41.70
11144;DHT22;5626;44.730;10.276;2022-07-01T15:31:01;34.10;42.00
11144;DHT22;5626;44.730;10.276;2022-07-01T15:33:31;34.00;42.10
11144;DHT22;5626;44.730;10.276;2022-07-01T15:36:00;33.90;42.30
11144;DHT22;5626;44.730;10.276;2022-07-01T15:38:30;34.00;43.70
11144;DHT22;5626;44.730;10.276;2022-07-01T15:41:00;34.00;43.00
11144;DHT22;5626;44.730;10.276;2022-07-01T15:43:30;34.00;42.70
11144;DHT22;5626;44.730;10.276;2022-07-01T15:46:01;34.10;42.30
11144;DHT22;5626;44.730;10.276;2022-07-01T15:48:31;33.90;43.00
11144;DHT22;5626;44.730;10.276;2022-07-01T15:51:00;33.90;43.40
11144;DHT22;5626;44.730;10.276;2022-07-01T15:53:30;34.00;43.70
11144;DHT22;5626;44.730;10.276;2022-07-01T15:56:01;33.90;43.10
11144;DHT22;5626;44.730;10.276;2022-07-01T15:58:31;33.80;44.50
11144;DHT22;5626;44.730;10.276;2022-07-01T16:01:03;33.60;42.80